createdAt,value
2023-05-18T00:01:23.593Z,19.10
2023-05-18T00:03:54.211Z,18.33
2023-05-18T00:06:22.645Z,13.07
2023-05-18T00:08:49.661Z,14.85
2023-05-18T00:11:17.594Z,15.13
2023-05-18T00:13:44.429Z,15.60
2023-05-18T00:16:13.799Z,14.23
2023-05-18T00:18:40.924Z,18.50
2023-05-18T00:21:09.233Z,15.70
2023-05-18T00:23:39.483Z,15.75
2023-05-18T00:26:06.621Z,15.05
2023-05-18T00:28:33.516Z,15.40
2023-05-18T00:31:00.740Z,11.13
2023-05-18T00:33:27.466Z,13.80
2023-05-18T00:35:54.652Z,17.42
2023-05-18T00:38:21.501Z,12.98
2023-05-18T00:40:48.602Z,15.35
2023-05-18T00:43:15.611Z,12.43
2023-05-18T00:45:42.708Z,15.25
2023-05-18T00:48:10.701Z,13.30
2023-05-18T00:50:38.318Z,13.80
2023-05-18T00:53:05.441Z,15.75
2023-05-18T00:55:32.684Z,20.23
2023-05-18T00:58:02.617Z,11.50
2023-05-18T01:00:29.856Z,13.63
2023-05-18T01:02:57.463Z,14.93
2023-05-18T01:05:25.026Z,14.40
2023-05-18T01:07:52.040Z,12.23
2023-05-18T01:10:21.097Z,12.85
2023-05-18T01:12:49.834Z,12.40
2023-05-18T01:15:34.039Z,15.43
2023-05-18T01:18:22.456Z,16.33
2023-05-18T01:21:19.284Z,15.80
2023-05-18T01:24:04.035Z,16.55
2023-05-18T01:26:37.826Z,15.60
2023-05-18T01:29:09.233Z,14.63
2023-05-18T01:31:36.495Z,15.02
2023-05-18T01:34:03.480Z,15.82
2023-05-18T01:36:31.718Z,11.93
2023-05-18T01:39:01.875Z,11.35
2023-05-18T01:41:30.581Z,13.57
2023-05-18T01:44:12.545Z,10.27
2023-05-18T01:46:51.864Z,10.82
2023-05-18T01:49:39.273Z,11.15
2023-05-18T01:52:15.027Z,13.63
2023-05-18T01:54:44.918Z,13.10
2023-05-18T01:57:12.596Z,15.35
2023-05-18T01:59:39.697Z,14.65
2023-05-18T02:02:07.011Z,16.40
2023-05-18T02:04:35.360Z,11.45
2023-05-18T02:07:02.450Z,10.20
2023-05-18T02:09:29.271Z,14.45
2023-05-18T02:11:56.563Z,13.05
2023-05-18T02:14:23.367Z,10.73
2023-05-18T02:16:53.399Z,9.98
2023-05-18T02:19:21.150Z,12.43
2023-05-18T02:21:48.371Z,13.40
2023-05-18T02:24:15.196Z,10.35
2023-05-18T02:26:42.385Z,16.27
2023-05-18T02:29:12.129Z,9.05
2023-05-18T02:31:39.300Z,10.10
2023-05-18T02:34:06.389Z,11.68
2023-05-18T02:36:40.162Z,16.33
2023-05-18T02:39:07.825Z,16.55
2023-05-18T02:41:35.899Z,15.50
2023-05-18T02:44:03.814Z,14.30
2023-05-18T02:46:31.479Z,16.23
2023-05-18T02:48:58.962Z,12.40
2023-05-18T02:51:26.050Z,10.68
2023-05-18T02:53:52.817Z,18.67
2023-05-18T02:56:19.874Z,10.70
2023-05-18T02:58:46.710Z,10.95
2023-05-18T03:01:13.772Z,10.27
2023-05-18T03:03:42.309Z,14.00
2023-05-18T03:06:10.187Z,11.73
2023-05-18T03:08:37.420Z,10.68
2023-05-18T03:11:04.673Z,10.57
2023-05-18T03:13:31.507Z,10.32
2023-05-18T03:15:58.643Z,9.85
2023-05-18T03:18:25.746Z,16.42
2023-05-18T03:20:52.998Z,13.40
2023-05-18T03:23:23.116Z,8.77
2023-05-18T03:25:53.826Z,10.25
2023-05-18T03:28:21.214Z,8.82
2023-05-18T03:30:48.840Z,9.10
2023-05-18T03:33:15.767Z,14.82
2023-05-18T03:35:43.388Z,10.77
2023-05-18T03:38:10.364Z,8.13
2023-05-18T03:40:37.603Z,11.27
2023-05-18T03:43:04.475Z,9.30
2023-05-18T03:45:31.739Z,11.85
2023-05-18T03:47:58.822Z,9.93
2023-05-18T03:50:25.964Z,11.48
2023-05-18T03:52:53.151Z,7.45
2023-05-18T03:55:21.598Z,9.63
2023-05-18T03:57:48.886Z,14.27
2023-05-18T04:00:16.369Z,11.23
2023-05-18T04:02:43.349Z,11.48
2023-05-18T04:05:10.520Z,12.15
2023-05-18T04:07:44.040Z,8.48
2023-05-18T04:10:12.146Z,9.18
2023-05-18T04:12:39.570Z,10.57
2023-05-18T04:15:07.164Z,8.88
2023-05-18T04:17:35.638Z,11.52
2023-05-18T04:20:11.591Z,9.98
2023-05-18T04:22:46.851Z,16.33
2023-05-18T04:25:15.301Z,11.88
2023-05-18T04:27:43.784Z,9.98
2023-05-18T04:30:11.939Z,9.77
2023-05-18T04:32:42.856Z,13.18
2023-05-18T04:35:11.676Z,11.82
2023-05-18T04:37:41.602Z,9.15
2023-05-18T04:40:17.515Z,13.57
2023-05-18T04:42:47.930Z,9.60
2023-05-18T04:45:19.628Z,20.15
2023-05-18T04:47:47.938Z,12.55
2023-05-18T04:50:18.959Z,12.00
2023-05-18T04:52:49.071Z,8.40
2023-05-18T04:55:20.064Z,7.45
2023-05-18T04:57:47.721Z,9.98
2023-05-18T05:00:16.079Z,8.70
2023-05-18T05:02:42.968Z,8.45
2023-05-18T05:05:10.172Z,8.32
2023-05-18T05:07:36.951Z,10.10
2023-05-18T05:10:04.274Z,9.18
2023-05-18T05:12:31.160Z,9.70
2023-05-18T05:14:58.338Z,9.85
2023-05-18T05:17:25.281Z,10.55
2023-05-18T05:19:52.342Z,8.82
2023-05-18T05:22:19.957Z,8.95
2023-05-18T05:24:47.010Z,6.00
2023-05-18T05:27:13.800Z,13.52
2023-05-18T05:29:40.979Z,10.27
2023-05-18T05:32:08.019Z,9.10
2023-05-18T05:34:35.085Z,7.80
2023-05-18T05:37:01.919Z,7.43
2023-05-18T05:39:28.988Z,12.27
2023-05-18T05:41:55.881Z,14.02
2023-05-18T05:44:23.316Z,10.75
2023-05-18T05:46:50.122Z,9.60
2023-05-18T05:49:17.146Z,9.63
2023-05-18T05:51:44.130Z,10.55
2023-05-18T05:54:11.181Z,8.85
2023-05-18T05:56:37.907Z,8.00
2023-05-18T05:59:04.992Z,7.57
2023-05-18T06:01:32.811Z,6.47
2023-05-18T06:03:59.952Z,8.95
2023-05-18T06:06:28.438Z,7.57
2023-05-18T06:08:55.809Z,10.05
2023-05-18T06:11:22.790Z,7.47
2023-05-18T06:13:49.852Z,8.55
2023-05-18T06:16:16.583Z,5.07
2023-05-18T06:18:43.747Z,9.82
2023-05-18T06:21:10.615Z,7.38
2023-05-18T06:23:39.513Z,10.27
2023-05-18T06:26:07.879Z,6.30
2023-05-18T06:28:34.878Z,8.65
2023-05-18T06:31:01.831Z,7.93
2023-05-18T06:33:28.939Z,7.53
2023-05-18T06:35:56.182Z,6.55
2023-05-18T06:38:23.364Z,8.68
2023-05-18T06:40:50.359Z,7.63
2023-05-18T06:43:17.550Z,8.65
2023-05-18T06:45:44.487Z,6.57
2023-05-18T06:48:11.606Z,6.80
2023-05-18T06:50:38.427Z,5.80
2023-05-18T06:53:05.914Z,5.88
2023-05-18T06:55:32.880Z,6.40
2023-05-18T06:58:00.200Z,5.03
2023-05-18T07:00:26.987Z,7.05
2023-05-18T07:02:54.551Z,7.05
2023-05-18T07:05:21.574Z,9.25
2023-05-18T07:07:49.266Z,8.13
2023-05-18T07:10:16.295Z,5.30
2023-05-18T07:12:43.408Z,7.85
2023-05-18T07:15:11.647Z,7.22
2023-05-18T07:17:39.169Z,7.45
2023-05-18T07:20:07.330Z,5.90
2023-05-18T07:22:35.227Z,9.55
2023-05-18T07:25:01.995Z,6.40
2023-05-18T07:27:29.242Z,6.82
2023-05-18T07:29:56.158Z,8.95
2023-05-18T07:32:23.451Z,8.15
2023-05-18T07:34:50.368Z,6.43
2023-05-18T07:37:17.605Z,6.68
2023-05-18T07:39:45.460Z,9.02
2023-05-18T07:42:12.527Z,5.93
2023-05-18T07:44:39.365Z,7.03
2023-05-18T07:47:06.749Z,3.90
2023-05-18T07:49:33.607Z,5.07
2023-05-18T07:52:02.605Z,4.63
2023-05-18T07:54:29.507Z,3.80
2023-05-18T07:56:58.564Z,5.90
2023-05-18T07:59:27.411Z,4.05
2023-05-18T08:01:55.080Z,7.47
2023-05-18T08:04:22.042Z,6.30
2023-05-18T08:06:49.102Z,4.10
2023-05-18T08:09:16.434Z,3.63
2023-05-18T08:11:45.171Z,7.10
2023-05-18T08:14:11.989Z,5.63
2023-05-18T08:16:39.217Z,4.13
2023-05-18T08:19:06.417Z,4.43
2023-05-18T08:21:33.491Z,5.97
2023-05-18T08:24:00.649Z,4.80
2023-05-18T08:26:30.657Z,5.35
2023-05-18T08:29:00.633Z,5.80
2023-05-18T08:31:27.759Z,8.13
2023-05-18T08:33:54.611Z,4.65
2023-05-18T08:36:21.705Z,4.63
2023-05-18T08:38:48.513Z,5.70
2023-05-18T08:41:23.487Z,4.78
2023-05-18T08:43:59.494Z,5.47
2023-05-18T08:46:33.413Z,5.45
2023-05-18T08:49:01.375Z,7.10
2023-05-18T08:51:32.324Z,6.65
2023-05-18T08:53:59.380Z,6.40
2023-05-18T08:56:29.503Z,4.00
2023-05-18T08:58:57.230Z,5.70
2023-05-18T09:01:31.347Z,6.90
2023-05-18T09:03:59.958Z,5.63
2023-05-18T09:06:28.911Z,4.25
2023-05-18T09:08:59.806Z,6.43
2023-05-18T09:13:55.735Z,7.15
2023-05-18T09:16:22.920Z,8.80
2023-05-18T09:18:50.099Z,4.15
2023-05-18T09:21:17.305Z,3.22
2023-05-18T09:23:45.260Z,5.22
2023-05-18T09:26:13.479Z,3.78
2023-05-18T09:28:42.539Z,5.18
2023-05-18T09:31:21.029Z,5.55
2023-05-18T09:33:48.661Z,4.63
2023-05-18T09:36:16.618Z,5.15
2023-05-18T09:38:48.268Z,3.22
2023-05-18T09:41:17.651Z,5.47
2023-05-18T09:43:47.651Z,6.07
2023-05-18T09:46:14.860Z,4.97
2023-05-18T09:48:45.491Z,4.55
2023-05-18T09:51:18.104Z,4.45
2023-05-18T09:53:49.765Z,8.38
2023-05-18T09:56:18.178Z,4.90
2023-05-18T09:58:48.504Z,3.67
2023-05-18T10:01:16.215Z,4.50
2023-05-18T10:03:45.318Z,4.97
2023-05-18T10:06:19.883Z,3.55
2023-05-18T10:08:47.016Z,7.00
2023-05-18T10:11:19.570Z,4.68
2023-05-18T10:13:47.055Z,5.15
2023-05-18T10:16:19.481Z,4.40
2023-05-18T10:18:48.961Z,6.25
2023-05-18T10:21:17.890Z,6.32
2023-05-18T10:23:46.666Z,6.43
2023-05-18T10:26:16.946Z,4.65
2023-05-18T10:28:47.352Z,3.28
2023-05-18T10:31:16.750Z,4.47
2023-05-18T10:33:44.493Z,3.72
2023-05-18T10:36:12.143Z,3.45
2023-05-18T10:38:40.636Z,5.97
2023-05-18T10:41:09.941Z,6.22
2023-05-18T10:43:37.571Z,5.78
2023-05-18T10:46:08.359Z,4.80
2023-05-18T10:48:42.232Z,5.97
2023-05-18T10:51:09.433Z,6.40
2023-05-18T10:53:36.958Z,6.68
2023-05-18T10:56:04.254Z,5.78
2023-05-18T10:58:31.968Z,3.30
2023-05-18T11:01:03.235Z,5.80
2023-05-18T11:03:33.162Z,6.80
2023-05-18T11:06:11.011Z,4.60
2023-05-18T11:08:47.952Z,8.07
2023-05-18T11:11:17.921Z,5.05
2023-05-18T11:13:48.903Z,4.95
2023-05-18T11:16:17.278Z,4.70
2023-05-18T11:18:45.509Z,9.18
2023-05-18T11:21:24.865Z,6.13
2023-05-18T11:24:13.362Z,7.45
2023-05-18T11:26:43.004Z,10.82
2023-05-18T11:29:17.418Z,4.63
2023-05-18T11:31:45.965Z,3.92
2023-05-18T11:34:40.144Z,4.65
2023-05-18T11:37:11.664Z,3.65
2023-05-18T11:39:48.017Z,4.93
2023-05-18T11:42:20.595Z,4.20
2023-05-18T11:44:56.823Z,5.45
2023-05-18T11:47:31.432Z,3.30
2023-05-18T11:49:59.148Z,7.68
2023-05-18T11:52:26.647Z,5.63
2023-05-18T11:54:55.694Z,4.78
2023-05-18T11:57:34.924Z,6.03
2023-05-18T12:00:07.805Z,7.53
2023-05-18T12:02:35.130Z,5.30
2023-05-18T12:05:07.092Z,4.65
2023-05-18T12:07:38.906Z,6.63
2023-05-18T12:10:10.283Z,5.25
2023-05-18T12:12:37.459Z,5.88
2023-05-18T12:15:06.470Z,4.57
2023-05-18T12:17:40.882Z,7.18
2023-05-18T12:20:09.926Z,3.72
2023-05-18T12:22:37.480Z,4.45
2023-05-18T12:25:04.790Z,4.82
2023-05-18T12:27:32.568Z,3.53
2023-05-18T12:29:59.366Z,3.58
2023-05-18T12:32:30.428Z,3.90
2023-05-18T12:34:57.332Z,9.73
2023-05-18T12:37:33.880Z,4.07
2023-05-18T12:40:05.549Z,4.07
2023-05-18T12:42:32.596Z,5.68
2023-05-18T12:44:59.342Z,4.63
2023-05-18T12:47:29.935Z,4.82
2023-05-18T12:49:56.782Z,3.95
2023-05-18T12:52:23.831Z,9.27
2023-05-18T12:54:55.926Z,5.57
2023-05-18T12:57:26.580Z,6.53
2023-05-18T13:00:01.187Z,4.70
2023-05-18T13:02:29.972Z,6.80
2023-05-18T13:05:23.529Z,4.20
2023-05-18T13:07:50.785Z,7.50
2023-05-18T13:10:19.849Z,4.55
2023-05-18T13:12:48.906Z,4.00
2023-05-18T13:15:16.788Z,6.25
2023-05-18T13:17:52.735Z,5.22
2023-05-18T13:20:19.662Z,6.75
2023-05-18T13:22:46.792Z,4.63
2023-05-18T13:25:13.551Z,7.35
2023-05-18T13:27:40.620Z,4.53
2023-05-18T13:30:08.119Z,7.68
2023-05-18T13:32:35.523Z,6.13
2023-05-18T13:35:02.392Z,6.88
2023-05-18T13:37:29.603Z,8.50
2023-05-18T13:39:56.520Z,7.15
2023-05-18T13:42:23.575Z,8.45
2023-05-18T13:44:50.528Z,5.63
2023-05-18T13:47:17.545Z,6.43
2023-05-18T13:49:44.324Z,5.88
2023-05-18T13:52:11.604Z,4.40
2023-05-18T13:54:38.537Z,4.30
2023-05-18T13:57:05.932Z,6.28
2023-05-18T13:59:34.642Z,4.18
2023-05-18T14:02:01.929Z,5.18
2023-05-18T14:04:28.832Z,3.80
2023-05-18T14:06:55.983Z,6.47
2023-05-18T14:09:22.899Z,4.72
2023-05-18T14:11:51.731Z,6.05
2023-05-18T14:14:20.723Z,4.38
2023-05-18T14:16:48.168Z,5.93
2023-05-18T14:19:15.177Z,4.78
2023-05-18T14:21:42.420Z,5.20
2023-05-18T14:24:09.961Z,4.05
2023-05-18T14:26:37.496Z,4.53
2023-05-18T14:29:04.341Z,3.08
2023-05-18T14:31:31.583Z,4.55
2023-05-18T14:33:58.521Z,2.72
2023-05-18T14:36:25.679Z,2.90
2023-05-18T14:38:52.489Z,4.55
2023-05-18T14:41:21.278Z,4.10
2023-05-18T14:43:48.103Z,6.57
2023-05-18T14:46:15.263Z,5.97
2023-05-18T14:48:42.080Z,4.82
2023-05-18T14:51:09.257Z,5.43
2023-05-18T14:53:36.063Z,7.03
2023-05-18T14:56:06.192Z,8.32
2023-05-18T14:58:33.078Z,11.00
2023-05-18T15:01:00.328Z,9.88
2023-05-18T15:03:28.419Z,12.50
2023-05-18T15:05:55.836Z,4.85
2023-05-18T15:08:22.679Z,4.93
2023-05-18T15:10:50.149Z,4.43
2023-05-18T15:13:17.024Z,4.57
2023-05-18T15:15:44.537Z,7.45
2023-05-18T15:18:11.985Z,6.60
2023-05-18T15:20:40.064Z,5.88
2023-05-18T15:23:06.972Z,4.78
2023-05-18T15:25:34.213Z,4.72
2023-05-18T15:28:01.149Z,5.97
2023-05-18T15:30:30.115Z,5.13
2023-05-18T15:32:57.769Z,6.68
2023-05-18T15:35:25.127Z,4.95
2023-05-18T15:37:52.017Z,6.93
2023-05-18T15:40:19.359Z,5.15
2023-05-18T15:42:46.233Z,6.53
2023-05-18T15:45:13.577Z,5.07
2023-05-18T15:47:40.499Z,5.25
2023-05-18T15:50:08.116Z,3.63
2023-05-18T15:52:35.140Z,5.55
2023-05-18T15:55:02.295Z,6.82
2023-05-18T15:57:29.058Z,5.43
2023-05-18T15:59:56.301Z,3.67
2023-05-18T16:02:25.680Z,4.85
2023-05-18T16:04:55.220Z,4.43
2023-05-18T16:07:22.163Z,4.03
2023-05-18T16:09:49.501Z,9.52
2023-05-18T16:12:16.287Z,5.75
2023-05-18T16:14:43.390Z,5.20
2023-05-18T16:17:10.359Z,6.05
2023-05-18T16:19:37.747Z,4.60
2023-05-18T16:22:04.716Z,4.18
2023-05-18T16:24:31.835Z,4.72
2023-05-18T16:26:58.594Z,5.43
2023-05-18T16:29:25.734Z,5.65
2023-05-18T16:31:52.552Z,3.53
2023-05-18T16:34:19.697Z,4.90
2023-05-18T16:36:46.741Z,5.43
2023-05-18T16:39:13.892Z,5.95
2023-05-18T16:41:41.069Z,6.07
2023-05-18T16:44:08.180Z,4.95
2023-05-18T16:46:34.986Z,5.32
2023-05-18T16:49:02.097Z,4.82
2023-05-18T16:51:28.988Z,5.50
2023-05-18T16:53:56.223Z,8.30
2023-05-18T16:56:23.054Z,9.63
2023-05-18T16:58:52.456Z,12.75
2023-05-18T17:03:53.670Z,11.65
2023-05-18T17:06:21.364Z,12.85
2023-05-18T17:08:50.662Z,10.52
2023-05-18T17:11:17.479Z,9.63
2023-05-18T17:13:44.645Z,12.88
2023-05-18T17:16:12.727Z,11.85
2023-05-18T17:18:40.106Z,21.38
2023-05-18T17:21:06.954Z,24.23
2023-05-18T17:23:34.008Z,25.02
2023-05-18T17:26:06.319Z,24.98
2023-05-18T17:28:33.872Z,36.13
2023-05-18T17:31:00.774Z,36.70
2023-05-18T17:33:27.843Z,39.53
2023-05-18T17:35:55.272Z,31.05
2023-05-18T17:38:22.696Z,26.08
2023-05-18T17:40:49.539Z,22.38
2023-05-18T17:43:16.579Z,20.65
2023-05-18T17:45:43.373Z,15.68
2023-05-18T17:48:10.543Z,13.65
2023-05-18T17:50:37.903Z,11.30
2023-05-18T17:53:05.084Z,14.27
2023-05-18T17:55:32.127Z,11.20
2023-05-18T17:58:01.129Z,10.75
2023-05-18T18:00:30.797Z,13.52
2023-05-18T18:02:58.259Z,13.90
2023-05-18T18:05:25.315Z,14.23
2023-05-18T18:07:52.574Z,14.73
2023-05-18T18:10:20.141Z,15.80
2023-05-18T18:12:47.248Z,21.55
2023-05-18T18:15:14.065Z,13.43
2023-05-18T18:17:41.419Z,12.48
2023-05-18T18:20:10.001Z,11.32
2023-05-18T18:22:37.105Z,12.50
2023-05-18T18:25:04.229Z,12.40
2023-05-18T18:27:31.326Z,8.68
2023-05-18T18:29:58.221Z,9.40
2023-05-18T18:32:25.813Z,6.95
2023-05-18T18:34:52.795Z,10.98
2023-05-18T18:37:20.247Z,8.35
2023-05-18T18:39:47.509Z,7.82
2023-05-18T18:42:16.570Z,11.02
2023-05-18T18:44:47.063Z,9.00
2023-05-18T18:47:14.235Z,12.10
2023-05-18T18:49:41.053Z,10.85
2023-05-18T18:52:08.113Z,9.00
2023-05-18T18:54:35.700Z,12.05
2023-05-18T18:57:03.081Z,9.75
2023-05-18T18:59:29.883Z,9.60
2023-05-18T19:01:56.961Z,11.73
2023-05-18T19:04:24.257Z,10.20
2023-05-18T19:06:54.088Z,9.52
2023-05-18T19:09:21.140Z,10.23
2023-05-18T19:11:49.057Z,12.35
2023-05-18T19:14:15.997Z,10.20
2023-05-18T19:16:43.312Z,10.02
2023-05-18T19:19:11.221Z,12.10
2023-05-18T19:21:38.696Z,10.25
2023-05-18T19:24:07.400Z,11.88
2023-05-18T19:26:34.599Z,12.82
2023-05-18T19:29:01.344Z,12.55
2023-05-18T19:31:31.684Z,10.43
2023-05-18T19:34:01.366Z,10.15
2023-05-18T19:36:28.549Z,8.02
2023-05-18T19:38:55.984Z,12.55
2023-05-18T19:41:24.733Z,9.52
2023-05-18T19:43:51.900Z,9.20
2023-05-18T19:46:19.672Z,9.88
2023-05-18T19:48:46.804Z,10.13
2023-05-18T19:51:14.139Z,8.80
2023-05-18T19:53:43.124Z,9.23
2023-05-18T19:56:11.178Z,10.07
2023-05-18T19:58:38.149Z,14.63
2023-05-18T20:01:05.229Z,10.23
2023-05-18T20:03:32.352Z,16.55
2023-05-18T20:05:59.550Z,11.20
2023-05-18T20:08:27.863Z,11.60
2023-05-18T20:10:55.520Z,9.88
2023-05-18T20:13:23.134Z,9.38
2023-05-18T20:15:50.284Z,8.93
2023-05-18T20:18:17.233Z,12.95
2023-05-18T20:20:44.757Z,7.13
2023-05-18T20:23:11.869Z,6.78
2023-05-18T20:25:39.024Z,7.57
2023-05-18T20:28:08.778Z,7.30
2023-05-18T20:30:36.454Z,8.20
2023-05-18T20:33:06.248Z,10.90
2023-05-18T20:35:34.300Z,10.15
2023-05-18T20:38:02.598Z,7.18
2023-05-18T20:40:30.960Z,7.97
2023-05-18T20:43:00.669Z,9.77
2023-05-18T20:45:31.443Z,8.23
2023-05-18T20:47:59.963Z,7.30
2023-05-18T20:50:27.327Z,9.02
2023-05-18T20:52:54.315Z,8.55
2023-05-18T20:55:21.365Z,8.20
2023-05-18T20:57:50.996Z,8.70
2023-05-18T21:00:18.524Z,7.47
2023-05-18T21:02:46.150Z,6.82
2023-05-18T21:05:14.096Z,8.30
2023-05-18T21:07:40.847Z,5.85
2023-05-18T21:10:08.577Z,8.85
2023-05-18T21:12:35.719Z,7.82
2023-05-18T21:15:03.496Z,7.68
2023-05-18T21:17:31.819Z,7.85
2023-05-18T21:19:58.907Z,11.05
2023-05-18T21:22:25.841Z,10.10
2023-05-18T21:24:52.989Z,9.43
2023-05-18T21:27:19.803Z,8.40
2023-05-18T21:29:46.872Z,11.93
2023-05-18T21:32:14.033Z,8.65
2023-05-18T21:34:43.483Z,5.45
2023-05-18T21:37:10.942Z,6.57
2023-05-18T21:39:38.138Z,7.93
2023-05-18T21:42:05.266Z,6.72
2023-05-18T21:44:32.772Z,5.35
2023-05-18T21:46:59.696Z,8.00
2023-05-18T21:49:26.849Z,7.10
2023-05-18T21:51:53.733Z,5.55
2023-05-18T21:54:20.842Z,5.72
2023-05-18T21:56:47.801Z,8.13
2023-05-18T21:59:14.947Z,6.95
2023-05-18T22:01:41.810Z,5.70
2023-05-18T22:04:08.933Z,7.13
2023-05-18T22:06:35.799Z,6.63
2023-05-18T22:09:02.924Z,7.28
2023-05-18T22:11:29.767Z,5.90
2023-05-18T22:13:56.895Z,6.93
2023-05-18T22:16:23.762Z,7.95
2023-05-18T22:18:50.945Z,8.52
2023-05-18T22:21:17.857Z,7.60
2023-05-18T22:23:44.957Z,5.72
2023-05-18T22:26:12.241Z,5.70
2023-05-18T22:28:39.366Z,6.75
2023-05-18T22:31:06.591Z,6.95
2023-05-18T22:33:33.712Z,6.55
2023-05-18T22:36:00.647Z,6.80
2023-05-18T22:38:27.844Z,7.57
2023-05-18T22:40:54.741Z,6.10
2023-05-18T22:43:22.143Z,5.65
2023-05-18T22:45:49.167Z,5.90
2023-05-18T22:48:16.251Z,5.75
2023-05-18T22:50:43.167Z,5.57
2023-05-18T22:53:12.029Z,6.03
2023-05-18T22:55:39.206Z,7.72
2023-05-18T22:58:06.288Z,5.30
2023-05-18T23:00:33.490Z,6.32
2023-05-18T23:03:00.754Z,7.28
2023-05-18T23:05:27.820Z,6.53
2023-05-18T23:07:58.027Z,4.72
2023-05-18T23:10:26.577Z,8.80
2023-05-18T23:12:55.682Z,8.77
2023-05-18T23:15:23.104Z,6.32
2023-05-18T23:17:50.313Z,6.45
2023-05-18T23:20:17.136Z,9.48
2023-05-18T23:22:44.388Z,7.53
2023-05-18T23:25:11.394Z,8.43
2023-05-18T23:27:38.485Z,8.10
2023-05-18T23:30:06.265Z,7.35
2023-05-18T23:32:34.216Z,6.38
2023-05-18T23:35:01.384Z,5.22
2023-05-18T23:37:29.510Z,7.45
2023-05-18T23:39:56.645Z,5.22
2023-05-18T23:42:24.722Z,6.22
2023-05-18T23:44:51.857Z,7.18
2023-05-18T23:47:19.155Z,6.05
2023-05-18T23:49:47.797Z,6.28
2023-05-18T23:52:16.302Z,6.35
2023-05-18T23:54:45.651Z,8.50
2023-05-18T23:57:13.086Z,5.88
2023-05-18T23:59:41.191Z,6.22
